createdAt,value
2023-01-04T00:01:53.437Z,5.41
2023-01-04T00:04:20.126Z,5.46
2023-01-04T00:06:46.857Z,5.48
2023-01-04T00:09:13.565Z,5.47
2023-01-04T00:11:40.295Z,5.48
2023-01-04T00:14:07.064Z,5.29
2023-01-04T00:16:33.837Z,5.31
2023-01-04T00:19:00.570Z,5.31
2023-01-04T00:21:30.881Z,5.38
2023-01-04T00:23:59.687Z,5.34
2023-01-04T00:26:31.496Z,5.38
2023-01-04T00:29:01.339Z,5.43
2023-01-04T00:31:28.687Z,5.55
2023-01-04T00:33:56.707Z,5.51
2023-01-04T00:36:23.690Z,5.48
2023-01-04T00:39:08.147Z,5.37
2023-01-04T00:41:57.977Z,5.52
2023-01-04T00:44:24.036Z,5.55
2023-01-04T00:46:50.843Z,5.63
2023-01-04T00:49:17.568Z,5.60
2023-01-04T00:51:44.302Z,5.49
2023-01-04T00:54:13.895Z,5.63
2023-01-04T00:56:40.567Z,5.54
2023-01-04T00:59:07.325Z,5.69
2023-01-04T01:01:35.079Z,5.76
2023-01-04T01:04:03.634Z,5.62
2023-01-04T01:06:31.530Z,5.70
2023-01-04T01:08:58.332Z,5.82
2023-01-04T01:11:25.626Z,5.82
2023-01-04T01:13:52.742Z,5.89
2023-01-04T01:16:44.452Z,5.96
2023-01-04T01:19:08.868Z,5.86
2023-01-04T01:21:35.662Z,5.83
2023-01-04T01:24:02.339Z,5.91
2023-01-04T01:26:29.039Z,6.01
2023-01-04T01:28:55.927Z,6.03
2023-01-04T01:31:24.854Z,6.04
2023-01-04T01:33:53.334Z,6.04
2023-01-04T01:36:21.995Z,6.05
2023-01-04T01:38:48.981Z,6.07
2023-01-04T01:41:24.640Z,6.05
2023-01-04T01:44:02.346Z,5.97
2023-01-04T01:46:47.596Z,5.97
2023-01-04T01:49:46.797Z,5.92
2023-01-04T01:52:18.971Z,5.92
2023-01-04T01:54:47.912Z,5.95
2023-01-04T01:57:18.938Z,5.79
2023-01-04T01:59:48.150Z,5.95
2023-01-04T02:02:15.089Z,5.95
2023-01-04T02:04:43.811Z,6.00
2023-01-04T02:07:12.404Z,5.88
2023-01-04T02:09:40.104Z,5.63
2023-01-04T02:12:11.640Z,5.78
2023-01-04T02:14:38.635Z,5.94
2023-01-04T02:17:16.150Z,5.76
2023-01-04T02:20:12.353Z,5.71
2023-01-04T02:22:55.922Z,5.82
2023-01-04T02:25:51.660Z,5.73
2023-01-04T02:28:30.527Z,5.71
2023-01-04T02:31:16.112Z,5.48
2023-01-04T02:33:54.718Z,5.64
2023-01-04T02:36:33.960Z,5.34
2023-01-04T02:39:08.852Z,5.57
2023-01-04T02:41:41.843Z,5.55
2023-01-04T02:44:55.871Z,5.65
2023-01-04T02:47:44.781Z,5.66
2023-01-04T02:50:34.213Z,5.77
2023-01-04T02:53:13.455Z,5.62
2023-01-04T02:55:45.357Z,5.61
2023-01-04T02:58:29.592Z,5.57
2023-01-04T03:01:24.347Z,5.60
2023-01-04T03:04:21.709Z,5.56
2023-01-04T03:06:58.840Z,5.25
2023-01-04T03:09:29.750Z,5.50
2023-01-04T03:12:19.082Z,5.65
2023-01-04T03:14:52.471Z,5.58
2023-01-04T03:17:21.535Z,5.62
2023-01-04T03:19:51.729Z,5.54
2023-01-04T03:22:50.870Z,5.63
2023-01-04T03:25:39.440Z,5.58
2023-01-04T03:28:25.729Z,5.72
2023-01-04T03:31:15.596Z,5.52
2023-01-04T03:34:01.543Z,5.55
2023-01-04T03:36:41.421Z,5.55
2023-01-04T03:39:37.348Z,5.69
2023-01-04T03:43:00.438Z,5.16
2023-01-04T03:45:50.146Z,5.36
2023-01-04T03:48:34.781Z,5.50
2023-01-04T03:51:06.374Z,5.49
2023-01-04T03:53:36.179Z,5.58
2023-01-04T03:56:03.398Z,5.52
2023-01-04T03:58:30.078Z,5.60
2023-01-04T04:01:03.613Z,5.62
2023-01-04T04:03:50.184Z,5.33
2023-01-04T04:06:35.654Z,5.64
2023-01-04T04:09:02.687Z,5.60
2023-01-04T04:11:32.313Z,5.72
2023-01-04T04:14:00.175Z,5.45
2023-01-04T04:16:27.609Z,5.26
2023-01-04T04:18:54.581Z,5.62
2023-01-04T04:21:21.322Z,5.61
2023-01-04T04:23:48.114Z,5.60
2023-01-04T04:26:15.198Z,5.56
2023-01-04T04:28:42.671Z,5.51
2023-01-04T04:31:09.603Z,5.74
2023-01-04T04:33:36.338Z,5.61
2023-01-04T04:36:03.114Z,5.64
2023-01-04T04:38:29.807Z,5.64
2023-01-04T04:41:15.194Z,5.72
2023-01-04T04:43:41.887Z,5.76
2023-01-04T04:46:08.736Z,5.71
2023-01-04T04:48:35.534Z,5.92
2023-01-04T04:51:02.283Z,5.61
2023-01-04T04:53:29.001Z,5.80
2023-01-04T04:55:55.735Z,5.82
2023-01-04T04:58:23.330Z,5.76
2023-01-04T05:00:50.048Z,5.90
2023-01-04T05:03:16.788Z,5.91
2023-01-04T05:05:43.502Z,5.84
2023-01-04T05:08:10.342Z,5.89
2023-01-04T05:10:38.411Z,5.80
2023-01-04T05:13:06.509Z,5.94
2023-01-04T05:15:52.915Z,6.09
2023-01-04T05:18:20.947Z,6.12
2023-01-04T05:20:48.632Z,5.98
2023-01-04T05:23:17.061Z,5.98
2023-01-04T05:25:43.831Z,6.01
2023-01-04T05:28:11.032Z,5.92
2023-01-04T05:30:57.278Z,5.93
2023-01-04T05:33:28.887Z,6.01
2023-01-04T05:35:57.206Z,6.04
2023-01-04T05:38:24.365Z,6.08
2023-01-04T05:40:51.748Z,6.25
2023-01-04T05:43:20.190Z,6.24
2023-01-04T05:45:52.429Z,6.18
2023-01-04T05:48:19.352Z,6.29
2023-01-04T05:50:46.101Z,6.22
2023-01-04T05:53:14.182Z,6.19
2023-01-04T05:55:40.931Z,6.11
2023-01-04T05:58:07.824Z,6.29
2023-01-04T06:00:34.546Z,6.36
2023-01-04T06:03:01.521Z,6.38
2023-01-04T06:05:28.387Z,6.40
2023-01-04T06:07:55.108Z,6.35
2023-01-04T06:10:21.848Z,6.48
2023-01-04T06:12:48.651Z,6.36
2023-01-04T06:15:15.687Z,6.52
2023-01-04T06:17:42.547Z,6.54
2023-01-04T06:20:10.350Z,6.67
2023-01-04T06:22:37.123Z,6.51
2023-01-04T06:25:04.762Z,6.41
2023-01-04T06:27:31.557Z,6.32
2023-01-04T06:29:58.509Z,6.49
2023-01-04T06:32:25.394Z,6.55
2023-01-04T06:34:52.119Z,6.67
2023-01-04T06:37:21.587Z,6.63
2023-01-04T06:39:48.415Z,6.70
2023-01-04T06:42:33.900Z,6.69
2023-01-04T06:45:00.621Z,6.84
2023-01-04T06:47:27.391Z,6.79
2023-01-04T06:49:54.176Z,6.80
2023-01-04T06:52:20.949Z,7.03
2023-01-04T06:54:47.764Z,6.85
2023-01-04T06:57:14.767Z,6.79
2023-01-04T06:59:41.575Z,6.91
2023-01-04T07:02:08.481Z,6.96
2023-01-04T07:04:35.436Z,7.07
2023-01-04T07:07:02.382Z,7.12
2023-01-04T07:09:29.282Z,7.13
2023-01-04T07:11:58.001Z,7.19
2023-01-04T07:14:24.823Z,7.32
2023-01-04T07:16:51.692Z,7.17
2023-01-04T07:19:18.563Z,7.27
2023-01-04T07:21:45.249Z,7.25
2023-01-04T07:24:12.105Z,7.27
2023-01-04T07:26:38.985Z,7.35
2023-01-04T07:29:14.878Z,7.42
2023-01-04T07:31:42.163Z,7.32
2023-01-04T07:34:08.952Z,7.36
2023-01-04T07:36:35.655Z,7.27
2023-01-04T07:39:03.291Z,7.39
2023-01-04T07:41:30.152Z,7.41
2023-01-04T07:43:56.881Z,7.43
2023-01-04T07:46:23.784Z,7.34
2023-01-04T07:48:50.517Z,7.37
2023-01-04T07:51:17.261Z,7.31
2023-01-04T07:53:44.058Z,7.49
2023-01-04T07:56:15.302Z,7.45
2023-01-04T07:58:45.414Z,7.36
2023-01-04T08:01:14.829Z,7.33
2023-01-04T08:03:42.119Z,7.44
2023-01-04T08:06:11.246Z,7.49
2023-01-04T08:08:38.173Z,7.44
2023-01-04T08:11:12.741Z,7.37
2023-01-04T08:13:39.410Z,7.43
2023-01-04T08:16:06.894Z,7.43
2023-01-04T08:18:33.759Z,7.43
2023-01-04T08:21:08.558Z,7.37
2023-01-04T08:23:36.636Z,7.44
2023-01-04T08:26:05.720Z,7.38
2023-01-04T08:28:33.118Z,7.37
2023-01-04T08:31:05.648Z,7.43
2023-01-04T08:33:32.713Z,7.42
2023-01-04T08:36:12.811Z,7.51
2023-01-04T08:44:13.600Z,7.60
2023-01-04T08:46:40.309Z,7.59
2023-01-04T08:49:07.187Z,7.73
2023-01-04T08:51:33.856Z,7.70
2023-01-04T08:54:00.624Z,7.76
2023-01-04T08:56:27.577Z,7.70
2023-01-04T08:58:54.475Z,7.84
2023-01-04T09:01:21.226Z,7.75
2023-01-04T09:03:48.213Z,7.80
2023-01-04T09:06:15.947Z,7.69
2023-01-04T09:08:43.704Z,7.76
2023-01-04T09:11:15.981Z,7.81
2023-01-04T09:13:43.637Z,7.83
2023-01-04T09:16:15.907Z,7.75
2023-01-04T09:18:43.395Z,7.83
2023-01-04T09:21:12.772Z,7.88
2023-01-04T09:23:40.020Z,7.85
2023-01-04T09:26:12.640Z,7.85
2023-01-04T09:28:40.749Z,7.81
2023-01-04T09:31:13.217Z,7.95
2023-01-04T09:34:12.874Z,8.02
2023-01-04T09:36:26.862Z,7.93
2023-01-04T09:38:53.614Z,8.00
2023-01-04T09:41:32.814Z,7.96
2023-01-04T09:44:05.171Z,8.03
2023-01-04T09:46:45.876Z,8.09
2023-01-04T09:49:18.474Z,8.08
2023-01-04T09:51:57.052Z,8.04
2023-01-04T09:57:20.180Z,8.13
2023-01-04T09:59:47.649Z,8.12
2023-01-04T10:02:21.861Z,8.16
2023-01-04T10:04:50.443Z,8.25
2023-01-04T10:07:31.834Z,8.23
2023-01-04T10:09:58.776Z,8.23
2023-01-04T10:12:47.548Z,8.05
2023-01-04T10:15:38.015Z,8.21
2023-01-04T10:19:51.041Z,8.14
2023-01-04T10:21:46.669Z,8.07
2023-01-04T10:24:32.294Z,8.13
2023-01-04T10:27:09.194Z,8.27
2023-01-04T10:30:00.432Z,8.40
2023-01-04T10:32:44.433Z,8.27
2023-01-04T10:35:17.326Z,8.35
2023-01-04T10:37:45.311Z,8.30
2023-01-04T10:40:16.775Z,8.33
2023-01-04T10:43:03.232Z,8.26
2023-01-04T10:45:47.071Z,8.30
2023-01-04T10:48:38.995Z,8.36
2023-01-04T10:51:10.301Z,8.38
2023-01-04T10:53:47.461Z,8.43
2023-01-04T10:56:23.605Z,8.42
2023-01-04T10:58:55.460Z,8.41
2023-01-04T11:01:31.498Z,8.43
2023-01-04T11:04:15.643Z,8.51
2023-01-04T11:06:48.343Z,8.38
2023-01-04T11:09:25.703Z,8.49
2023-01-04T11:11:55.458Z,8.58
2023-01-04T11:14:22.497Z,8.59
2023-01-04T11:16:51.148Z,8.65
2023-01-04T11:19:18.075Z,8.66
2023-01-04T11:21:57.253Z,8.66
2023-01-04T11:24:32.517Z,8.69
2023-01-04T11:27:06.112Z,8.84
2023-01-04T11:29:46.745Z,8.72
2023-01-04T11:33:03.161Z,8.67
2023-01-04T11:35:44.637Z,8.73
2023-01-04T11:38:20.469Z,8.91
2023-01-04T11:41:08.582Z,8.95
2023-01-04T11:43:37.135Z,8.99
2023-01-04T11:46:06.112Z,8.79
2023-01-04T11:48:34.431Z,8.85
2023-01-04T11:51:01.630Z,8.95
2023-01-04T11:53:29.707Z,8.99
2023-01-04T11:56:22.512Z,8.90
2023-01-04T11:59:09.912Z,9.00
2023-01-04T12:01:48.217Z,8.98
2023-01-04T12:04:27.499Z,9.07
2023-01-04T12:06:58.419Z,8.99
2023-01-04T12:09:25.265Z,8.95
2023-01-04T12:12:08.678Z,9.08
2023-01-04T12:14:40.997Z,9.09
2023-01-04T12:17:19.601Z,9.18
2023-01-04T12:19:47.000Z,9.20
2023-01-04T12:22:34.228Z,9.23
2023-01-04T12:25:02.080Z,9.11
2023-01-04T12:27:29.300Z,9.24
2023-01-04T12:29:59.328Z,9.36
2023-01-04T12:32:26.183Z,9.22
2023-01-04T12:34:53.248Z,9.26
2023-01-04T12:37:38.400Z,9.16
2023-01-04T12:40:43.831Z,9.30
2023-01-04T12:43:16.718Z,9.32
2023-01-04T12:45:48.681Z,9.39
2023-01-04T12:48:46.378Z,9.25
2023-01-04T12:51:33.247Z,9.26
2023-01-04T12:54:05.755Z,9.26
2023-01-04T12:57:10.600Z,9.23
2023-01-04T12:59:58.947Z,9.24
2023-01-04T13:02:52.126Z,9.25
2023-01-04T13:06:21.079Z,9.29
2023-01-04T13:08:12.143Z,9.18
2023-01-04T13:10:45.074Z,9.31
2023-01-04T13:13:36.579Z,9.29
2023-01-04T13:16:41.046Z,9.34
2023-01-04T13:19:22.399Z,9.38
2023-01-04T13:21:51.489Z,9.35
2023-01-04T13:24:27.364Z,9.36
2023-01-04T13:26:55.108Z,9.26
2023-01-04T13:29:25.630Z,9.33
2023-01-04T13:32:03.400Z,9.30
2023-01-04T13:34:39.233Z,9.25
2023-01-04T13:37:11.603Z,9.46
2023-01-04T13:39:50.064Z,9.23
2023-01-04T13:42:30.563Z,9.49
2023-01-04T13:45:22.452Z,9.42
2023-01-04T13:47:56.894Z,9.47
2023-01-04T13:50:29.734Z,9.23
2023-01-04T13:53:06.349Z,9.27
2023-01-04T13:55:36.590Z,9.33
2023-01-04T13:58:15.944Z,9.46
2023-01-04T14:01:01.124Z,9.60
2023-01-04T14:03:37.868Z,9.53
2023-01-04T14:06:10.685Z,9.62
2023-01-04T14:08:40.735Z,9.55
2023-01-04T14:11:40.786Z,9.47
2023-01-04T14:14:23.271Z,9.61
2023-01-04T14:16:51.186Z,9.48
2023-01-04T14:19:44.501Z,9.72
2023-01-04T14:22:23.487Z,9.62
2023-01-04T14:25:09.135Z,9.64
2023-01-04T14:27:39.320Z,9.50
2023-01-04T14:30:22.707Z,9.66
2023-01-04T14:32:55.528Z,9.50
2023-01-04T14:35:22.668Z,9.63
2023-01-04T14:37:50.177Z,9.55
2023-01-04T14:40:27.000Z,9.70
2023-01-04T14:42:54.557Z,9.69
2023-01-04T14:45:21.262Z,9.61
2023-01-04T14:47:48.069Z,9.49
2023-01-04T14:50:16.041Z,9.58
2023-01-04T14:52:42.997Z,9.65
2023-01-04T14:55:12.512Z,9.86
2023-01-04T14:57:43.576Z,9.68
2023-01-04T15:00:18.796Z,9.74
2023-01-04T15:02:50.771Z,9.94
2023-01-04T15:05:20.522Z,9.70
2023-01-04T15:07:47.617Z,9.85
2023-01-04T15:10:32.504Z,9.85
2023-01-04T15:13:00.866Z,9.94
2023-01-04T15:15:27.787Z,9.87
2023-01-04T15:17:54.575Z,9.77
2023-01-04T15:20:21.713Z,10.00
2023-01-04T15:22:48.426Z,9.93
2023-01-04T15:25:15.170Z,10.03
2023-01-04T15:27:42.898Z,9.87
2023-01-04T15:30:12.314Z,9.88
2023-01-04T15:32:40.080Z,10.10
2023-01-04T15:35:07.187Z,10.12
2023-01-04T15:37:33.859Z,10.07
2023-01-04T15:40:03.175Z,10.00
2023-01-04T15:42:48.889Z,10.01
2023-01-04T15:45:15.945Z,10.12
2023-01-04T15:47:42.723Z,9.99
2023-01-04T15:50:09.569Z,10.02
2023-01-04T15:52:36.270Z,10.14
2023-01-04T15:55:03.318Z,10.05
2023-01-04T15:57:30.296Z,10.14
2023-01-04T15:59:57.042Z,10.28
2023-01-04T16:02:24.084Z,10.11
2023-01-04T16:04:51.084Z,10.22
2023-01-04T16:07:18.223Z,10.28
2023-01-04T16:09:45.136Z,10.24
2023-01-04T16:12:30.620Z,10.40
2023-01-04T16:14:57.385Z,10.43
2023-01-04T16:17:25.391Z,10.40
2023-01-04T16:19:52.256Z,10.42
2023-01-04T16:22:18.947Z,10.20
2023-01-04T16:25:09.864Z,10.36
2023-01-04T16:27:35.465Z,10.42
2023-01-04T16:30:04.060Z,10.50
2023-01-04T16:32:31.396Z,10.41
2023-01-04T16:34:59.808Z,10.39
2023-01-04T16:37:28.263Z,10.49
2023-01-04T16:40:10.658Z,10.54
2023-01-04T16:42:38.952Z,10.50
2023-01-04T16:45:07.021Z,10.50
2023-01-04T16:47:41.826Z,10.59
2023-01-04T16:50:10.000Z,10.55
2023-01-04T16:52:37.071Z,10.51
2023-01-04T16:55:04.603Z,10.45
2023-01-04T16:57:31.761Z,10.51
2023-01-04T16:59:58.626Z,10.45
2023-01-04T17:02:25.683Z,10.64
2023-01-04T17:04:59.722Z,10.65
2023-01-04T17:07:33.261Z,10.67
2023-01-04T17:10:01.349Z,10.70
2023-01-04T17:15:41.900Z,10.80
2023-01-04T17:18:01.812Z,10.75
2023-01-04T17:20:28.666Z,10.83
2023-01-04T17:22:55.549Z,10.85
2023-01-04T17:25:22.450Z,10.97
2023-01-04T17:27:49.387Z,10.82
2023-01-04T17:30:16.309Z,10.99
2023-01-04T17:32:43.166Z,10.95
2023-01-04T17:35:10.048Z,10.92
2023-01-04T17:37:36.962Z,10.95
2023-01-04T17:40:04.109Z,11.02
2023-01-04T17:42:33.444Z,10.93
2023-01-04T17:45:00.204Z,11.18
2023-01-04T17:47:27.875Z,11.14
2023-01-04T17:49:54.774Z,11.03
2023-01-04T17:52:30.438Z,10.94
2023-01-04T17:55:01.627Z,11.09
2023-01-04T17:57:33.083Z,11.20
2023-01-04T18:00:00.109Z,11.09
2023-01-04T18:02:26.898Z,11.05
2023-01-04T18:04:55.053Z,11.06
2023-01-04T18:07:25.477Z,11.24
2023-01-04T18:09:53.035Z,11.13
2023-01-04T18:12:20.395Z,11.21
2023-01-04T18:14:47.572Z,11.08
2023-01-04T18:17:14.475Z,11.21
2023-01-04T18:19:44.548Z,11.26
2023-01-04T18:22:13.281Z,11.20
2023-01-04T18:24:40.169Z,11.17
2023-01-04T18:27:25.690Z,11.26
2023-01-04T18:29:53.830Z,11.25
2023-01-04T18:32:22.563Z,11.23
2023-01-04T18:34:49.512Z,11.43
2023-01-04T18:37:18.560Z,11.36
2023-01-04T18:39:46.894Z,11.28
2023-01-04T18:42:13.762Z,11.46
2023-01-04T18:44:46.055Z,11.58
2023-01-04T18:47:15.671Z,11.54
2023-01-04T18:49:42.443Z,11.49
2023-01-04T18:52:09.427Z,11.42
2023-01-04T18:54:36.200Z,11.58
2023-01-04T18:57:05.361Z,11.58
2023-01-04T18:59:32.549Z,11.53
2023-01-04T19:02:01.815Z,11.55
2023-01-04T19:04:32.868Z,11.45
2023-01-04T19:07:00.164Z,11.56
2023-01-04T19:09:27.159Z,11.44
2023-01-04T19:11:54.169Z,11.54
2023-01-04T19:14:20.930Z,11.43
2023-01-04T19:16:49.311Z,11.41
2023-01-04T19:19:16.493Z,11.63
2023-01-04T19:21:43.332Z,11.60
2023-01-04T19:24:10.163Z,11.54
2023-01-04T19:26:37.145Z,11.42
2023-01-04T19:29:04.697Z,11.59
2023-01-04T19:31:31.727Z,11.61
2023-01-04T19:33:58.490Z,11.61
2023-01-04T19:36:25.265Z,11.64
2023-01-04T19:38:52.182Z,11.73
2023-01-04T19:41:27.701Z,11.74
2023-01-04T19:43:59.769Z,11.80
2023-01-04T19:46:26.701Z,11.71
2023-01-04T19:48:53.373Z,11.78
2023-01-04T19:51:20.088Z,11.68
2023-01-04T19:53:46.817Z,11.84
2023-01-04T19:56:16.973Z,11.68
2023-01-04T19:58:44.148Z,11.74
2023-01-04T20:01:15.401Z,11.71
2023-01-04T20:03:42.745Z,11.75
2023-01-04T20:06:10.390Z,11.70
2023-01-04T20:08:37.643Z,11.80
2023-01-04T20:11:04.941Z,11.87
2023-01-04T20:13:33.664Z,11.68
2023-01-04T20:16:01.113Z,11.71
2023-01-04T20:18:28.009Z,11.65
2023-01-04T20:20:56.024Z,11.80
2023-01-04T20:23:23.049Z,11.59
2023-01-04T20:25:52.682Z,11.77
2023-01-04T20:28:21.702Z,11.88
2023-01-04T20:30:48.662Z,11.91
2023-01-04T20:33:15.692Z,11.80
2023-01-04T20:35:44.556Z,11.84
2023-01-04T20:38:12.234Z,11.83
2023-01-04T20:40:39.624Z,11.86
2023-01-04T20:43:24.944Z,11.85
2023-01-04T20:45:51.917Z,11.81
2023-01-04T20:48:19.063Z,11.81
2023-01-04T20:50:45.844Z,11.73
2023-01-04T20:53:13.794Z,11.80
2023-01-04T20:55:41.921Z,11.82
2023-01-04T20:58:10.233Z,11.74
2023-01-04T21:00:37.818Z,11.78
2023-01-04T21:03:06.453Z,11.82
2023-01-04T21:05:38.362Z,11.86
2023-01-04T21:08:05.387Z,11.84
2023-01-04T21:10:32.345Z,11.86
2023-01-04T21:12:59.244Z,11.96
2023-01-04T21:15:26.183Z,11.85
2023-01-04T21:17:53.144Z,11.77
2023-01-04T21:20:21.743Z,11.88
2023-01-04T21:22:48.637Z,11.97
2023-01-04T21:25:15.517Z,11.67
2023-01-04T21:27:42.300Z,11.84
2023-01-04T21:30:09.469Z,11.85
2023-01-04T21:32:36.229Z,11.85
2023-01-04T21:35:03.196Z,11.98
2023-01-04T21:37:30.129Z,11.88
2023-01-04T21:39:57.008Z,11.80
2023-01-04T21:42:26.536Z,11.79
2023-01-04T21:44:53.251Z,11.64
2023-01-04T21:47:19.948Z,11.78
2023-01-04T21:49:50.311Z,11.80
2023-01-04T21:52:16.972Z,11.77
2023-01-04T21:54:45.889Z,11.72
2023-01-04T21:57:12.733Z,11.65
2023-01-04T21:59:39.607Z,11.59
2023-01-04T22:02:06.573Z,11.62
2023-01-04T22:04:33.654Z,11.67
2023-01-04T22:07:00.422Z,11.54
2023-01-04T22:09:27.308Z,11.42
2023-01-04T22:11:54.175Z,11.51
2023-01-04T22:14:21.260Z,11.59
2023-01-04T22:16:48.265Z,11.53
2023-01-04T22:19:15.385Z,11.58
2023-01-04T22:21:42.861Z,11.57
2023-01-04T22:24:12.120Z,11.65
2023-01-04T22:26:39.189Z,11.67
2023-01-04T22:29:06.131Z,11.64
2023-01-04T22:31:33.060Z,11.46
2023-01-04T22:33:59.957Z,11.48
2023-01-04T22:36:26.996Z,11.41
2023-01-04T22:38:55.693Z,11.39
2023-01-04T22:41:25.285Z,11.12
2023-01-04T22:43:56.534Z,11.22
2023-01-04T22:46:23.888Z,11.31
2023-01-04T22:48:50.814Z,11.23
2023-01-04T22:51:19.137Z,10.98
2023-01-04T22:53:46.105Z,11.15
2023-01-04T22:56:19.375Z,11.20
2023-01-04T22:58:52.419Z,10.85
2023-01-04T23:01:23.578Z,10.98
2023-01-04T23:03:52.048Z,11.06
2023-01-04T23:06:20.363Z,11.17
2023-01-04T23:08:47.194Z,11.10
2023-01-04T23:11:19.112Z,11.12
2023-01-04T23:13:45.920Z,10.94
2023-01-04T23:16:14.836Z,11.09
2023-01-04T23:18:42.168Z,10.92
2023-01-04T23:21:09.733Z,10.93
2023-01-04T23:23:36.666Z,10.93
2023-01-04T23:26:14.495Z,11.05
2023-01-04T23:28:41.928Z,11.09
2023-01-04T23:31:11.043Z,10.90
2023-01-04T23:33:37.840Z,10.75
2023-01-04T23:36:13.414Z,10.94
2023-01-04T23:38:41.114Z,10.85
2023-01-04T23:41:08.313Z,10.73
2023-01-04T23:43:36.985Z,10.78
2023-01-04T23:46:14.667Z,10.74
2023-01-04T23:48:42.130Z,10.73
2023-01-04T23:51:09.255Z,10.67
2023-01-04T23:53:36.152Z,10.67
2023-01-04T23:56:21.094Z,10.54
2023-01-04T23:58:47.856Z,10.63
